createdAt,value
2019-04-29T00:00:44.242Z,8.80
2019-04-29T00:03:10.088Z,8.70
2019-04-29T00:05:35.673Z,8.70
2019-04-29T00:08:01.216Z,8.80
2019-04-29T00:10:27.196Z,8.80
2019-04-29T00:12:52.658Z,8.80
2019-04-29T00:15:38.911Z,8.70
2019-04-29T00:18:08.594Z,8.70
2019-04-29T00:20:48.714Z,8.80
2019-04-29T00:23:14.559Z,8.60
2019-04-29T00:25:40.015Z,8.60
2019-04-29T00:28:05.575Z,8.70
2019-04-29T00:30:31.048Z,8.70
2019-04-29T00:32:56.641Z,8.60
2019-04-29T00:35:22.047Z,8.50
2019-04-29T00:38:00.768Z,8.60
2019-04-29T00:40:50.964Z,8.60
2019-04-29T00:43:30.122Z,8.70
2019-04-29T00:45:55.633Z,8.70
2019-04-29T00:48:21.097Z,8.60
2019-04-29T00:50:46.585Z,8.70
2019-04-29T00:53:12.145Z,8.70
2019-04-29T00:55:37.603Z,8.40
2019-04-29T00:58:03.108Z,8.40
2019-04-29T01:00:36.408Z,8.30
2019-04-29T01:03:02.209Z,8.30
2019-04-29T01:05:27.685Z,8.40
2019-04-29T01:07:53.348Z,8.30
2019-04-29T01:10:18.989Z,8.30
2019-04-29T01:12:44.679Z,8.30
2019-04-29T01:15:10.258Z,8.40
2019-04-29T01:17:35.889Z,8.20
2019-04-29T01:20:01.464Z,8.20
2019-04-29T01:22:27.126Z,8.20
2019-04-29T01:24:52.702Z,8.10
2019-04-29T01:27:25.842Z,8.30
2019-04-29T01:29:51.855Z,8.20
2019-04-29T01:32:17.352Z,8.20
2019-04-29T01:34:49.719Z,8.10
2019-04-29T01:37:15.451Z,7.90
2019-04-29T01:39:46.761Z,7.90
2019-04-29T01:42:22.662Z,7.90
2019-04-29T01:44:48.133Z,7.80
2019-04-29T01:47:13.547Z,7.90
2019-04-29T01:49:39.469Z,8.10
2019-04-29T01:52:04.948Z,8.10
2019-04-29T01:54:30.411Z,8.10
2019-04-29T01:56:55.883Z,8.10
2019-04-29T01:59:21.467Z,8.00
2019-04-29T02:01:46.927Z,7.90
2019-04-29T02:04:12.397Z,8.00
2019-04-29T02:06:37.876Z,8.10
2019-04-29T02:09:05.130Z,8.00
2019-04-29T02:11:30.788Z,8.00
2019-04-29T02:13:56.531Z,7.90
2019-04-29T02:16:21.949Z,7.80
2019-04-29T02:18:47.396Z,7.80
2019-04-29T02:21:13.140Z,7.90
2019-04-29T02:24:03.483Z,7.90
2019-04-29T02:26:28.951Z,7.80
2019-04-29T02:28:54.419Z,7.70
2019-04-29T02:31:37.371Z,7.80
2019-04-29T02:34:02.815Z,7.80
2019-04-29T02:36:30.040Z,7.70
2019-04-29T02:39:19.973Z,7.70
2019-04-29T02:41:53.382Z,7.60
2019-04-29T02:44:18.892Z,7.70
2019-04-29T02:46:44.333Z,7.40
2019-04-29T02:49:10.109Z,7.50
2019-04-29T02:51:53.193Z,7.60
2019-04-29T02:54:18.665Z,7.60
2019-04-29T02:56:46.614Z,7.70
2019-04-29T02:59:13.021Z,7.60
2019-04-29T03:01:51.605Z,7.60
2019-04-29T03:04:19.595Z,7.50
2019-04-29T03:06:45.162Z,7.40
2019-04-29T03:09:11.057Z,7.40
2019-04-29T03:11:36.499Z,7.50
2019-04-29T03:14:02.048Z,7.50
2019-04-29T03:16:27.772Z,7.50
2019-04-29T03:18:58.034Z,7.50
2019-04-29T03:21:51.554Z,7.50
2019-04-29T03:24:16.934Z,7.60
2019-04-29T03:26:42.371Z,7.60
2019-04-29T03:29:22.635Z,7.50
2019-04-29T03:31:48.107Z,7.50
2019-04-29T03:34:13.812Z,7.60
2019-04-29T03:36:39.272Z,7.50
2019-04-29T03:39:06.286Z,7.30
2019-04-29T03:41:31.726Z,7.40
2019-04-29T03:43:57.195Z,7.30
2019-04-29T03:46:22.632Z,7.30
2019-04-29T03:48:48.119Z,7.30
2019-04-29T03:51:13.513Z,7.20
2019-04-29T03:53:39.135Z,7.20
2019-04-29T03:56:04.629Z,7.20
2019-04-29T03:58:30.159Z,7.30
2019-04-29T04:01:14.480Z,7.30
2019-04-29T04:03:46.876Z,7.20
2019-04-29T04:06:49.734Z,7.10
2019-04-29T04:09:18.131Z,7.10
2019-04-29T04:11:43.544Z,7.20
2019-04-29T04:14:09.002Z,7.20
2019-04-29T04:16:52.237Z,7.20
2019-04-29T04:19:18.585Z,7.30
2019-04-29T04:21:44.238Z,7.40
2019-04-29T04:24:09.702Z,7.40
2019-04-29T04:26:35.713Z,7.40
2019-04-29T04:29:01.094Z,7.40
2019-04-29T04:31:26.838Z,7.30
2019-04-29T04:33:52.461Z,7.20
2019-04-29T04:36:18.456Z,7.20
2019-04-29T04:38:44.154Z,7.30
2019-04-29T04:41:11.399Z,7.30
2019-04-29T04:43:37.154Z,7.30
2019-04-29T04:46:02.610Z,7.50
2019-04-29T04:48:30.900Z,7.50
2019-04-29T04:50:56.379Z,7.50
2019-04-29T04:53:22.106Z,7.60
2019-04-29T04:55:49.172Z,7.60
2019-04-29T04:58:14.943Z,7.60
2019-04-29T05:00:40.354Z,7.60
2019-04-29T05:03:05.832Z,7.70
2019-04-29T05:05:31.899Z,7.80
2019-04-29T05:07:57.362Z,7.80
2019-04-29T05:10:22.967Z,7.70
2019-04-29T05:12:48.421Z,7.70
2019-04-29T05:15:14.179Z,7.80
2019-04-29T05:17:39.651Z,8.00
2019-04-29T05:20:05.246Z,8.00
2019-04-29T05:22:30.706Z,8.10
2019-04-29T05:24:56.137Z,8.10
2019-04-29T05:27:22.046Z,8.10
2019-04-29T05:29:47.392Z,8.20
2019-04-29T05:32:12.863Z,8.40
2019-04-29T05:34:41.674Z,8.40
2019-04-29T05:37:24.921Z,8.50
2019-04-29T05:39:50.411Z,8.70
2019-04-29T05:42:17.198Z,8.80
2019-04-29T05:44:51.234Z,8.80
2019-04-29T05:47:23.211Z,9.00
2019-04-29T05:50:06.613Z,9.10
2019-04-29T05:52:49.802Z,9.20
2019-04-29T05:55:15.448Z,9.20
2019-04-29T05:57:40.897Z,9.40
2019-04-29T06:00:07.757Z,9.50
2019-04-29T06:02:38.335Z,9.60
2019-04-29T06:05:00.558Z,9.80
2019-04-29T06:07:26.969Z,9.90
2019-04-29T06:09:52.549Z,10.10
2019-04-29T06:12:18.030Z,10.20
2019-04-29T06:14:43.506Z,10.30
2019-04-29T06:17:08.975Z,10.40
2019-04-29T06:19:35.211Z,10.60
2019-04-29T06:22:03.886Z,10.80
2019-04-29T06:24:28.812Z,10.90
2019-04-29T06:26:54.298Z,11.10
2019-04-29T06:29:19.667Z,11.20
2019-04-29T06:31:45.261Z,11.20
2019-04-29T06:34:10.734Z,11.20
2019-04-29T06:36:36.193Z,11.40
2019-04-29T06:39:01.643Z,11.50
2019-04-29T06:41:27.119Z,11.60
2019-04-29T06:43:55.901Z,11.80
2019-04-29T06:46:19.779Z,11.90
2019-04-29T06:48:45.217Z,12.00
2019-04-29T06:51:10.694Z,12.10
2019-04-29T06:53:36.159Z,12.20
2019-04-29T06:56:01.567Z,12.30
2019-04-29T06:58:27.381Z,12.50
2019-04-29T07:00:55.786Z,12.50
2019-04-29T07:03:20.949Z,12.50
2019-04-29T07:05:47.383Z,12.40
2019-04-29T07:08:12.849Z,12.20
2019-04-29T07:10:38.401Z,12.50
2019-04-29T07:13:03.893Z,12.70
2019-04-29T07:15:29.608Z,12.50
2019-04-29T07:17:55.110Z,12.60
2019-04-29T07:20:20.559Z,12.70
2019-04-29T07:22:46.177Z,12.90
2019-04-29T07:25:11.845Z,12.50
2019-04-29T07:27:43.010Z,12.70
2019-04-29T07:30:06.577Z,12.90
2019-04-29T07:32:33.250Z,12.90
2019-04-29T07:34:58.717Z,13.00
2019-04-29T07:37:24.161Z,13.10
2019-04-29T07:39:49.661Z,13.30
2019-04-29T07:42:15.660Z,13.10
2019-04-29T07:45:12.093Z,13.10
2019-04-29T07:47:38.757Z,13.10
2019-04-29T07:50:04.370Z,13.20
2019-04-29T07:52:29.915Z,13.30
2019-04-29T07:54:56.288Z,13.40
2019-04-29T07:57:21.932Z,13.40
2019-04-29T07:59:47.390Z,13.40
2019-04-29T08:02:12.939Z,13.40
2019-04-29T08:04:40.410Z,13.40
2019-04-29T08:07:06.036Z,13.40
2019-04-29T08:09:31.879Z,13.30
2019-04-29T08:11:57.977Z,13.50
2019-04-29T08:14:25.740Z,13.50
2019-04-29T08:16:51.154Z,13.70
2019-04-29T08:19:16.552Z,13.60
2019-04-29T08:21:45.472Z,13.60
2019-04-29T08:24:11.588Z,13.70
2019-04-29T08:26:38.517Z,13.70
2019-04-29T08:29:03.513Z,13.80
2019-04-29T08:31:28.919Z,13.80
2019-04-29T08:33:54.327Z,13.80
2019-04-29T08:36:19.952Z,13.90
2019-04-29T08:38:45.415Z,13.80
2019-04-29T08:41:11.261Z,13.80
2019-04-29T08:44:15.784Z,13.80
2019-04-29T08:46:44.482Z,13.90
2019-04-29T08:49:12.090Z,14.10
2019-04-29T08:51:36.808Z,13.90
2019-04-29T08:54:02.571Z,14.00
2019-04-29T08:56:28.202Z,14.00
2019-04-29T08:58:53.660Z,14.00
2019-04-29T09:01:19.145Z,14.00
2019-04-29T09:03:44.595Z,14.10
2019-04-29T09:06:10.123Z,14.00
2019-04-29T09:08:35.586Z,13.90
2019-04-29T09:11:01.072Z,14.00
2019-04-29T09:13:26.779Z,14.20
2019-04-29T09:15:52.245Z,14.30
2019-04-29T09:18:17.703Z,14.20
2019-04-29T09:20:44.134Z,14.30
2019-04-29T09:23:12.148Z,14.30
2019-04-29T09:26:02.818Z,14.40
2019-04-29T09:28:27.948Z,14.30
2019-04-29T09:30:51.251Z,14.40
2019-04-29T09:33:16.853Z,14.20
2019-04-29T09:35:42.323Z,14.00
2019-04-29T09:38:07.789Z,13.90
2019-04-29T09:40:36.043Z,14.00
2019-04-29T09:43:21.498Z,14.10
2019-04-29T09:45:53.859Z,14.50
2019-04-29T09:48:20.268Z,14.50
2019-04-29T09:50:45.646Z,14.40
2019-04-29T09:53:11.379Z,14.50
2019-04-29T09:55:39.929Z,14.60
2019-04-29T09:58:04.582Z,14.20
2019-04-29T10:00:46.461Z,14.30
2019-04-29T10:03:30.866Z,14.50
2019-04-29T10:06:07.808Z,14.60
2019-04-29T10:08:33.370Z,14.60
2019-04-29T10:10:58.916Z,14.60
2019-04-29T10:13:24.516Z,14.90
2019-04-29T10:16:07.807Z,15.10
2019-04-29T10:18:41.339Z,14.90
2019-04-29T10:21:16.680Z,14.80
2019-04-29T10:23:40.267Z,14.60
2019-04-29T10:26:05.939Z,14.80
2019-04-29T10:28:35.245Z,15.00
2019-04-29T10:31:09.241Z,14.90
2019-04-29T10:33:34.947Z,15.10
2019-04-29T10:36:00.484Z,15.00
2019-04-29T10:38:25.868Z,14.70
2019-04-29T10:41:10.029Z,14.50
2019-04-29T10:44:00.663Z,14.50
2019-04-29T10:46:45.128Z,14.60
2019-04-29T10:49:18.092Z,14.90
2019-04-29T10:51:43.587Z,15.30
2019-04-29T10:54:09.166Z,15.00
2019-04-29T10:56:35.349Z,14.90
2019-04-29T10:59:04.593Z,15.00
2019-04-29T11:02:35.092Z,14.90
2019-04-29T11:05:20.110Z,15.00
2019-04-29T11:07:50.303Z,15.20
2019-04-29T11:10:29.627Z,15.50
2019-04-29T11:12:55.961Z,15.40
2019-04-29T11:15:23.814Z,15.10
2019-04-29T11:17:58.520Z,14.90
2019-04-29T11:20:21.136Z,14.80
2019-04-29T11:22:48.559Z,14.80
2019-04-29T11:25:40.627Z,15.10
2019-04-29T11:28:06.218Z,15.20
2019-04-29T11:30:34.947Z,15.20
2019-04-29T11:33:08.227Z,15.10
2019-04-29T11:35:39.226Z,15.10
2019-04-29T11:38:06.634Z,15.20
2019-04-29T11:40:43.092Z,15.30
2019-04-29T11:43:00.830Z,15.40
2019-04-29T11:45:33.744Z,15.60
2019-04-29T11:47:58.208Z,15.50
2019-04-29T11:50:36.305Z,15.60
2019-04-29T11:53:01.925Z,15.40
2019-04-29T11:55:27.530Z,15.20
2019-04-29T11:57:58.770Z,15.30
2019-04-29T12:00:53.544Z,15.60
2019-04-29T12:03:21.019Z,15.70
2019-04-29T12:05:53.526Z,15.60
2019-04-29T12:08:19.148Z,15.40
2019-04-29T12:10:52.094Z,15.50
2019-04-29T12:13:18.986Z,15.70
2019-04-29T12:16:03.107Z,15.60
2019-04-29T12:18:34.148Z,15.40
2019-04-29T12:21:08.099Z,15.20
2019-04-29T12:23:33.618Z,15.30
2019-04-29T12:26:03.047Z,15.70
2019-04-29T12:28:27.033Z,15.80
2019-04-29T12:30:54.411Z,15.90
2019-04-29T12:33:25.618Z,15.80
2019-04-29T12:35:58.581Z,15.40
2019-04-29T12:38:49.512Z,15.30
2019-04-29T12:41:25.327Z,15.60
2019-04-29T12:44:09.937Z,15.70
2019-04-29T12:46:44.500Z,15.70
2019-04-29T12:49:13.532Z,15.60
2019-04-29T12:51:37.262Z,15.50
2019-04-29T12:54:02.860Z,15.60
2019-04-29T12:56:43.314Z,15.70
2019-04-29T12:59:07.799Z,15.60
2019-04-29T13:01:51.577Z,15.40
2019-04-29T13:04:37.279Z,15.50
2019-04-29T13:07:30.945Z,15.50
2019-04-29T13:10:02.041Z,15.70
2019-04-29T13:12:30.148Z,15.90
2019-04-29T13:15:12.543Z,15.90
2019-04-29T13:17:44.077Z,15.80
2019-04-29T13:20:11.730Z,15.90
2019-04-29T13:22:37.755Z,15.70
2019-04-29T13:25:03.235Z,15.70
2019-04-29T13:27:28.856Z,15.80
2019-04-29T13:29:54.678Z,15.90
2019-04-29T13:32:20.496Z,16.00
2019-04-29T13:34:47.398Z,16.10
2019-04-29T13:37:20.619Z,16.20
2019-04-29T13:39:40.898Z,16.10
2019-04-29T13:42:09.069Z,16.10
2019-04-29T13:44:41.685Z,16.20
2019-04-29T13:47:13.754Z,16.40
2019-04-29T13:50:18.495Z,16.40
2019-04-29T13:52:31.238Z,16.40
2019-04-29T13:54:56.661Z,16.20
2019-04-29T13:57:22.327Z,16.10
2019-04-29T14:00:03.794Z,16.50
2019-04-29T14:02:36.799Z,16.40
2019-04-29T14:05:03.163Z,16.50
2019-04-29T14:07:28.770Z,16.50
2019-04-29T14:09:54.182Z,16.60
2019-04-29T14:14:47.325Z,16.70
2019-04-29T14:18:53.649Z,16.70
2019-04-29T14:19:42.355Z,16.70
2019-04-29T14:22:20.958Z,16.90
2019-04-29T14:24:34.984Z,16.70
2019-04-29T14:27:00.503Z,16.60
2019-04-29T14:29:28.316Z,16.60
2019-04-29T14:31:59.330Z,16.80
2019-04-29T14:34:36.613Z,16.70
2019-04-29T14:37:19.771Z,16.40
2019-04-29T14:39:37.067Z,16.40
2019-04-29T14:42:00.423Z,16.50
2019-04-29T14:44:33.918Z,16.50
2019-04-29T14:47:09.023Z,16.60
2019-04-29T14:49:47.414Z,16.70
2019-04-29T14:52:14.774Z,16.60
2019-04-29T14:54:41.816Z,16.90
2019-04-29T14:57:09.231Z,16.70
2019-04-29T14:59:35.050Z,16.60
2019-04-29T15:02:16.137Z,16.50
2019-04-29T15:04:40.754Z,16.40
2019-04-29T15:07:06.764Z,16.20
2019-04-29T15:09:45.874Z,16.20
2019-04-29T15:12:21.717Z,16.20
2019-04-29T15:15:01.502Z,16.40
2019-04-29T15:17:40.434Z,16.30
2019-04-29T15:20:25.205Z,16.30
2019-04-29T15:22:50.999Z,16.30
2019-04-29T15:25:20.866Z,16.20
2019-04-29T15:27:44.164Z,16.10
2019-04-29T15:30:10.388Z,16.00
2019-04-29T15:32:35.917Z,16.10
2019-04-29T15:35:01.385Z,16.10
2019-04-29T15:37:27.149Z,16.10
2019-04-29T15:39:52.679Z,16.00
2019-04-29T15:42:18.115Z,16.10
2019-04-29T15:44:43.694Z,16.00
2019-04-29T15:47:09.519Z,16.00
2019-04-29T15:49:34.976Z,15.90
2019-04-29T15:52:00.446Z,15.90
2019-04-29T15:54:26.275Z,15.90
2019-04-29T15:56:52.116Z,15.90
2019-04-29T15:59:17.878Z,15.70
2019-04-29T16:01:45.877Z,15.80
2019-04-29T16:04:15.743Z,15.80
2019-04-29T16:07:05.430Z,15.80
2019-04-29T16:09:52.549Z,15.80
2019-04-29T16:12:25.261Z,16.00
2019-04-29T16:14:50.552Z,16.10
2019-04-29T16:17:20.320Z,16.00
2019-04-29T16:19:43.203Z,15.90
2019-04-29T16:22:12.876Z,15.80
2019-04-29T16:24:38.418Z,15.90
2019-04-29T16:27:08.399Z,15.80
2019-04-29T16:29:30.473Z,15.80
2019-04-29T16:32:02.373Z,15.70
2019-04-29T16:34:23.016Z,15.60
2019-04-29T16:36:49.809Z,15.50
2019-04-29T16:39:15.880Z,15.50
2019-04-29T16:42:05.642Z,15.50
2019-04-29T16:44:36.219Z,15.40
2019-04-29T16:46:58.327Z,15.30
2019-04-29T16:49:23.953Z,15.30
2019-04-29T16:51:53.703Z,15.30
2019-04-29T16:54:20.400Z,15.40
2019-04-29T16:56:43.776Z,15.50
2019-04-29T16:59:09.673Z,15.60
2019-04-29T17:01:35.282Z,15.60
2019-04-29T17:04:05.462Z,15.50
2019-04-29T17:06:28.870Z,15.50
2019-04-29T17:09:10.959Z,15.40
2019-04-29T17:11:37.082Z,15.30
2019-04-29T17:14:09.877Z,15.20
2019-04-29T17:16:30.726Z,15.30
2019-04-29T17:18:56.212Z,15.20
2019-04-29T17:21:21.703Z,15.10
2019-04-29T17:23:47.187Z,15.10
2019-04-29T17:26:12.639Z,15.10
2019-04-29T17:28:44.963Z,15.00
2019-04-29T17:31:29.680Z,15.00
2019-04-29T17:34:53.925Z,15.10
2019-04-29T17:36:50.944Z,15.00
2019-04-29T17:39:17.376Z,14.90
2019-04-29T17:41:42.820Z,14.80
2019-04-29T17:44:38.765Z,14.90
2019-04-29T17:47:25.932Z,14.90
2019-04-29T17:50:01.936Z,14.90
2019-04-29T17:52:28.561Z,14.70
2019-04-29T17:54:57.873Z,14.60
2019-04-29T17:57:42.981Z,14.60
2019-04-29T18:00:43.511Z,14.70
2019-04-29T18:03:25.390Z,14.80
2019-04-29T18:06:18.857Z,14.70
2019-04-29T18:08:55.012Z,14.60
2019-04-29T18:11:20.997Z,14.70
2019-04-29T18:13:47.064Z,14.50
2019-04-29T18:16:19.159Z,14.40
2019-04-29T18:18:57.334Z,14.50
2019-04-29T18:21:43.138Z,14.50
2019-04-29T18:24:29.427Z,14.60
2019-04-29T18:27:04.053Z,14.50
2019-04-29T18:29:29.904Z,14.40
2019-04-29T18:31:55.685Z,14.40
2019-04-29T18:34:21.489Z,14.50
2019-04-29T18:36:47.653Z,14.40
2019-04-29T18:39:20.203Z,14.40
2019-04-29T18:41:44.861Z,14.40
2019-04-29T18:44:18.925Z,14.40
2019-04-29T18:46:45.900Z,14.40
2019-04-29T18:49:09.885Z,14.40
2019-04-29T18:51:35.669Z,14.30
2019-04-29T18:54:01.377Z,14.30
2019-04-29T18:56:27.194Z,14.30
2019-04-29T18:58:53.084Z,14.20
2019-04-29T19:01:19.718Z,14.20
2019-04-29T19:04:10.243Z,14.10
2019-04-29T19:06:33.199Z,14.20
2019-04-29T19:09:02.840Z,14.30
2019-04-29T19:11:32.629Z,14.00
2019-04-29T19:13:57.332Z,14.00
2019-04-29T19:16:23.697Z,14.10
2019-04-29T19:18:52.088Z,14.30
2019-04-29T19:21:18.109Z,14.10
2019-04-29T19:23:45.774Z,13.90
2019-04-29T19:26:11.781Z,13.90
2019-04-29T19:28:38.184Z,13.90
2019-04-29T19:31:09.463Z,14.00
2019-04-29T19:33:35.715Z,13.90
2019-04-29T19:35:59.122Z,13.90
2019-04-29T19:38:25.413Z,13.90
2019-04-29T19:40:51.351Z,13.90
2019-04-29T19:43:18.854Z,13.70
2019-04-29T19:45:44.702Z,13.70
2019-04-29T19:48:11.756Z,13.70
2019-04-29T19:50:37.946Z,13.80
2019-04-29T19:53:04.951Z,13.90
2019-04-29T19:55:33.313Z,13.70
2019-04-29T19:57:58.781Z,13.70
2019-04-29T20:00:29.492Z,13.50
2019-04-29T20:02:53.491Z,13.60
2019-04-29T20:05:31.385Z,13.50
2019-04-29T20:07:52.196Z,13.50
2019-04-29T20:10:19.036Z,13.50
2019-04-29T20:12:52.757Z,13.40
2019-04-29T20:15:13.009Z,13.50
2019-04-29T20:18:04.221Z,13.30
2019-04-29T20:20:38.689Z,13.30
2019-04-29T20:23:02.725Z,13.30
2019-04-29T20:25:31.040Z,13.40
2019-04-29T20:28:05.577Z,13.30
2019-04-29T20:30:26.069Z,13.30
2019-04-29T20:32:51.852Z,13.30
2019-04-29T20:35:18.698Z,13.20
2019-04-29T20:37:47.490Z,13.00
2019-04-29T20:40:12.267Z,12.90
2019-04-29T20:42:40.386Z,13.10
2019-04-29T20:45:05.705Z,13.10
2019-04-29T20:47:37.795Z,13.10
2019-04-29T20:49:59.199Z,12.90
2019-04-29T20:52:58.940Z,12.90
2019-04-29T20:55:20.158Z,12.90
2019-04-29T20:57:47.852Z,13.00
2019-04-29T21:00:14.077Z,13.10
2019-04-29T21:02:39.821Z,12.90
2019-04-29T21:05:09.641Z,12.80
2019-04-29T21:07:34.287Z,12.60
2019-04-29T21:10:03.878Z,12.60
2019-04-29T21:13:15.067Z,12.70
2019-04-29T21:15:52.001Z,12.80
2019-04-29T21:18:14.511Z,12.70
2019-04-29T21:20:40.801Z,12.40
2019-04-29T21:23:06.304Z,12.30
2019-04-29T21:25:31.800Z,12.40
2019-04-29T21:28:02.214Z,12.50
2019-04-29T21:30:35.065Z,12.50
2019-04-29T21:32:55.813Z,12.50
2019-04-29T21:35:31.660Z,12.50
2019-04-29T21:38:17.909Z,12.30
2019-04-29T21:40:49.550Z,12.30
2019-04-29T21:43:19.592Z,12.40
2019-04-29T21:45:48.346Z,12.40
2019-04-29T21:48:12.245Z,12.20
2019-04-29T21:50:38.136Z,12.30
2019-04-29T21:53:05.099Z,12.20
2019-04-29T21:55:31.203Z,12.30
2019-04-29T21:57:58.796Z,12.40
2019-04-29T22:00:25.763Z,12.50
2019-04-29T22:02:51.421Z,12.60
2019-04-29T22:05:18.450Z,12.30
2019-04-29T22:07:47.395Z,12.30
2019-04-29T22:10:12.148Z,12.60
2019-04-29T22:12:37.761Z,12.50
2019-04-29T22:15:03.326Z,12.40
2019-04-29T22:17:32.957Z,12.40
2019-04-29T22:19:57.391Z,12.50
2019-04-29T22:22:23.471Z,12.30
2019-04-29T22:24:51.204Z,12.40
2019-04-29T22:27:16.341Z,12.50
2019-04-29T22:29:41.740Z,12.60
2019-04-29T22:32:14.351Z,12.70
2019-04-29T22:34:35.451Z,12.60
2019-04-29T22:37:01.327Z,12.60
2019-04-29T22:39:29.978Z,12.40
2019-04-29T22:42:23.552Z,12.40
2019-04-29T22:44:52.635Z,12.50
2019-04-29T22:47:17.335Z,12.50
2019-04-29T22:49:43.851Z,12.60
2019-04-29T22:52:09.341Z,12.60
2019-04-29T22:54:35.327Z,12.60
2019-04-29T22:57:02.112Z,12.60
2019-04-29T22:59:28.194Z,12.70
2019-04-29T23:01:55.563Z,12.60
2019-04-29T23:04:20.867Z,12.50
2019-04-29T23:06:48.149Z,12.30
2019-04-29T23:09:13.684Z,12.40
2019-04-29T23:11:40.652Z,12.40
2019-04-29T23:14:09.918Z,12.20
2019-04-29T23:16:35.670Z,12.20
2019-04-29T23:19:01.550Z,12.30
2019-04-29T23:21:47.123Z,12.20
2019-04-29T23:24:29.738Z,12.20
2019-04-29T23:26:55.207Z,12.50
2019-04-29T23:29:20.754Z,12.50
2019-04-29T23:31:46.246Z,12.50
2019-04-29T23:34:11.738Z,12.60
2019-04-29T23:36:37.204Z,12.50
2019-04-29T23:39:02.681Z,12.40
2019-04-29T23:41:33.051Z,12.40
2019-04-29T23:43:59.990Z,12.40
2019-04-29T23:46:23.026Z,12.20
2019-04-29T23:48:48.416Z,12.10
2019-04-29T23:51:15.354Z,12.10
2019-04-29T23:53:40.929Z,12.20
2019-04-29T23:56:09.626Z,12.20
2019-04-29T23:58:47.043Z,12.20
